createdAt,value
2023-12-01T00:01:46.261Z,97283.53
2023-12-01T00:04:40.301Z,97305.69
2023-12-01T00:07:10.262Z,97285.09
2023-12-01T00:09:37.913Z,97327.69
2023-12-01T00:12:42.553Z,97331.66
2023-12-01T00:15:41.791Z,97246.47
2023-12-01T00:21:31.955Z,97332.31
2023-12-01T00:24:13.169Z,97315.94
2023-12-01T00:27:36.711Z,97276.72
2023-12-01T00:36:35.138Z,97270.75
2023-12-01T00:39:50.964Z,97287.00
2023-12-01T00:42:35.827Z,97268.88
2023-12-01T00:45:19.009Z,97226.09
2023-12-01T00:47:52.779Z,97240.03
2023-12-01T00:50:35.180Z,97212.03
2023-12-01T00:53:24.771Z,97225.88
2023-12-01T00:56:13.608Z,97194.81
2023-12-01T00:58:43.907Z,97240.38
2023-12-01T01:01:20.771Z,97267.06
2023-12-01T01:03:54.224Z,97253.06
2023-12-01T01:06:40.467Z,97250.25
2023-12-01T01:09:11.448Z,97273.25
2023-12-01T01:11:42.243Z,97286.97
2023-12-01T01:14:14.543Z,97306.16
2023-12-01T01:16:44.258Z,97262.38
2023-12-01T01:19:14.261Z,97234.00
2023-12-01T01:22:13.576Z,97267.38
2023-12-01T01:24:59.717Z,97231.25
2023-12-01T01:35:28.196Z,97293.72
2023-12-01T01:38:20.332Z,97293.53
2023-12-01T01:41:05.614Z,97303.22
2023-12-01T01:43:35.179Z,97235.69
2023-12-01T01:46:09.186Z,97227.59
2023-12-01T01:54:37.665Z,97191.78
2023-12-01T01:57:52.017Z,97272.91
2023-12-01T02:01:41.557Z,97277.97
2023-12-01T02:04:16.470Z,97288.50
2023-12-01T02:07:49.415Z,97274.47
2023-12-01T02:10:37.023Z,97222.75
2023-12-01T02:22:49.553Z,97204.63
2023-12-01T02:25:37.820Z,97215.09
2023-12-01T02:38:05.674Z,97239.97
2023-12-01T02:40:42.254Z,97221.78
2023-12-01T02:43:56.751Z,97224.06
2023-12-01T02:47:09.661Z,97146.25
2023-12-01T02:50:13.624Z,97168.44
2023-12-01T02:54:19.492Z,97182.34
2023-12-01T02:57:09.827Z,97195.56
2023-12-01T03:07:09.156Z,97205.28
2023-12-01T03:11:04.417Z,97209.81
2023-12-01T03:20:15.734Z,97200.72
2023-12-01T03:35:29.726Z,97205.31
2023-12-01T03:41:16.532Z,97182.84
2023-12-01T03:53:49.694Z,97199.16
2023-12-01T04:06:34.093Z,97138.47
2023-12-01T04:09:40.632Z,97172.00
2023-12-01T04:12:52.185Z,97165.44
2023-12-01T04:15:41.095Z,97184.31
2023-12-01T04:19:06.827Z,97169.13
2023-12-01T04:22:11.233Z,97185.09
2023-12-01T04:24:56.545Z,97199.44
2023-12-01T04:27:55.396Z,97168.06
2023-12-01T04:33:41.550Z,97203.28
2023-12-01T04:37:11.220Z,97185.03
2023-12-01T04:43:23.216Z,97133.38
2023-12-01T04:46:42.414Z,97167.13
2023-12-01T04:49:15.886Z,97147.69
2023-12-01T04:52:07.450Z,97167.28
2023-12-01T04:54:59.552Z,97094.78
2023-12-01T04:57:32.983Z,97080.72
2023-12-01T05:00:39.022Z,97150.47
2023-12-01T05:03:18.849Z,97066.63
2023-12-01T05:05:54.344Z,97062.34
2023-12-01T05:11:32.457Z,97144.81
2023-12-01T05:17:30.926Z,97105.94
2023-12-01T05:20:15.220Z,97088.94
2023-12-01T05:22:54.168Z,97092.94
2023-12-01T05:25:36.473Z,97069.88
2023-12-01T05:37:50.895Z,97156.63
2023-12-01T05:44:02.265Z,97103.31
2023-12-01T05:50:47.691Z,97052.97
2023-12-01T05:53:40.797Z,97087.28
2023-12-01T05:56:43.489Z,97131.47
2023-12-01T05:59:36.473Z,97127.19
2023-12-01T06:02:17.120Z,97134.34
2023-12-01T06:04:58.388Z,97111.84
2023-12-01T06:07:27.593Z,97125.53
2023-12-01T06:10:04.780Z,97083.75
2023-12-01T06:12:47.350Z,97113.16
2023-12-01T06:15:30.479Z,97125.19
2023-12-01T06:18:46.277Z,97079.63
2023-12-01T06:21:34.430Z,97115.19
2023-12-01T06:27:06.975Z,97133.53
2023-12-01T06:32:30.568Z,97105.09
2023-12-01T06:35:03.156Z,97069.78
2023-12-01T06:37:48.630Z,97037.88
2023-12-01T06:40:21.405Z,97116.56
2023-12-01T06:42:49.144Z,97107.66
2023-12-01T06:45:18.193Z,97060.72
2023-12-01T06:47:47.754Z,97117.56
2023-12-01T06:50:16.169Z,97053.94
2023-12-01T06:52:44.274Z,97128.16
2023-12-01T06:55:11.432Z,97072.63
2023-12-01T06:57:39.849Z,97084.88
2023-12-01T07:00:12.140Z,97055.88
2023-12-01T07:02:39.045Z,97097.53
2023-12-01T07:05:09.406Z,97075.41
2023-12-01T07:07:39.002Z,97053.13
2023-12-01T07:10:06.936Z,97057.94
2023-12-01T07:12:34.299Z,97033.34
2023-12-01T07:15:00.898Z,97074.97
2023-12-01T07:17:27.550Z,97100.25
2023-12-01T07:19:54.181Z,97046.22
2023-12-01T07:22:20.913Z,97051.69
2023-12-01T07:24:47.806Z,97082.50
2023-12-01T07:27:14.699Z,97044.44
2023-12-01T07:29:41.328Z,97014.03
2023-12-01T07:32:08.382Z,97002.47
2023-12-01T07:34:35.159Z,96994.69
2023-12-01T07:37:01.883Z,97036.81
2023-12-01T07:39:31.754Z,97100.47
2023-12-01T07:41:58.348Z,97105.34
2023-12-01T07:44:25.003Z,97031.56
2023-12-01T07:46:54.089Z,97077.59
2023-12-01T07:49:22.380Z,97076.63
2023-12-01T07:51:49.150Z,97029.03
2023-12-01T07:54:17.662Z,97003.47
2023-12-01T07:56:44.995Z,97058.41
2023-12-01T07:59:12.651Z,97046.50
2023-12-01T08:01:39.317Z,97074.63
2023-12-01T08:04:06.041Z,97036.19
2023-12-01T08:06:32.814Z,97055.56
2023-12-01T08:08:59.462Z,97052.38
2023-12-01T08:11:26.252Z,97103.16
2023-12-01T08:13:54.881Z,97082.59
2023-12-01T08:16:21.653Z,97013.88
2023-12-01T08:18:48.471Z,97042.56
2023-12-01T08:21:15.757Z,97023.56
2023-12-01T08:23:42.510Z,97073.06
2023-12-01T08:26:12.677Z,97024.72
2023-12-01T08:28:39.302Z,97089.00
2023-12-01T08:31:06.095Z,97077.00
2023-12-01T08:33:32.796Z,97096.41
2023-12-01T08:36:00.413Z,97041.94
2023-12-01T08:38:27.330Z,97009.38
2023-12-01T08:40:55.174Z,97013.75
2023-12-01T08:43:22.265Z,97044.06
2023-12-01T08:45:49.037Z,97075.91
2023-12-01T08:48:15.795Z,97103.22
2023-12-01T08:50:42.672Z,97081.63
2023-12-01T08:53:09.646Z,97096.63
2023-12-01T08:55:36.232Z,97107.59
2023-12-01T08:58:03.176Z,97084.97
2023-12-01T09:00:29.792Z,97021.97
2023-12-01T09:02:58.417Z,97034.41
2023-12-01T09:05:25.818Z,97006.00
2023-12-01T09:07:52.631Z,96999.28
2023-12-01T09:10:23.350Z,97106.63
2023-12-01T09:12:53.542Z,97049.59
2023-12-01T09:15:20.420Z,97023.16
2023-12-01T09:17:47.161Z,97105.13
2023-12-01T09:20:14.028Z,97034.03
2023-12-01T09:22:40.768Z,97045.63
2023-12-01T09:25:08.355Z,97036.81
2023-12-01T09:27:38.647Z,97034.50
2023-12-01T09:30:08.962Z,96996.41
2023-12-01T09:32:35.760Z,97046.63
2023-12-01T09:35:02.855Z,97100.69
2023-12-01T09:37:29.703Z,97139.16
2023-12-01T09:39:56.725Z,97068.50
2023-12-01T09:42:25.252Z,97022.84
2023-12-01T09:44:55.621Z,97060.44
2023-12-01T09:47:26.360Z,97098.41
2023-12-01T09:49:53.376Z,97040.41
2023-12-01T09:52:20.112Z,97016.38
2023-12-01T09:55:06.977Z,97052.69
2023-12-01T09:57:33.996Z,97040.06
2023-12-01T10:00:01.380Z,97000.72
2023-12-01T10:02:30.635Z,97009.28
2023-12-01T10:05:02.532Z,97039.66
2023-12-01T10:07:30.495Z,96991.34
2023-12-01T10:09:57.305Z,97045.78
2023-12-01T10:12:24.389Z,97043.47
2023-12-01T10:14:51.046Z,97021.06
2023-12-01T10:17:28.316Z,97050.09
2023-12-01T10:19:56.073Z,96978.25
2023-12-01T10:22:25.908Z,97036.31
2023-12-01T10:25:05.125Z,97048.81
2023-12-01T10:27:33.084Z,96984.16
2023-12-01T10:30:13.514Z,97033.31
2023-12-01T10:32:43.362Z,97027.38
2023-12-01T10:35:10.819Z,96937.22
2023-12-01T10:37:38.655Z,96962.59
2023-12-01T10:40:06.403Z,96994.44
2023-12-01T10:42:36.960Z,96965.06
2023-12-01T10:45:04.811Z,96969.41
2023-12-01T10:47:33.456Z,96952.50
2023-12-01T10:50:00.348Z,96970.19
2023-12-01T10:52:27.000Z,96959.28
2023-12-01T10:54:54.472Z,96912.66
2023-12-01T10:57:24.142Z,96995.78
2023-12-01T10:59:56.734Z,97007.63
2023-12-01T11:02:26.808Z,96940.75
2023-12-01T11:04:54.068Z,96940.28
2023-12-01T11:07:57.117Z,96994.91
2023-12-01T11:11:15.207Z,97002.59
2023-12-01T11:14:07.302Z,96910.44
2023-12-01T11:16:34.634Z,96949.38
2023-12-01T11:19:01.542Z,96886.84
2023-12-01T11:21:30.887Z,96887.41
2023-12-01T11:24:24.937Z,96949.19
2023-12-01T11:26:53.404Z,96869.66
2023-12-01T11:29:30.014Z,96905.72
2023-12-01T11:32:00.224Z,96893.59
2023-12-01T11:34:28.396Z,96864.00
2023-12-01T11:36:55.866Z,96793.84
2023-12-01T11:39:31.050Z,96903.97
2023-12-01T11:42:02.808Z,96932.38
2023-12-01T11:44:36.576Z,96861.16
2023-12-01T11:47:08.144Z,96948.91
2023-12-01T11:49:40.048Z,96957.50
2023-12-01T11:52:13.979Z,96885.91
2023-12-01T11:54:42.338Z,96931.03
2023-12-01T11:57:11.054Z,96930.75
2023-12-01T11:59:38.643Z,96863.31
2023-12-01T12:02:06.558Z,96817.56
2023-12-01T12:04:38.940Z,96914.53
2023-12-01T12:07:06.494Z,96800.50
2023-12-01T12:09:36.101Z,96920.22
2023-12-01T12:12:07.312Z,96822.06
2023-12-01T12:14:36.214Z,96870.88
2023-12-01T12:17:03.349Z,96873.00
2023-12-01T12:19:41.664Z,96881.59
2023-12-01T12:22:08.779Z,96821.69
2023-12-01T12:24:35.739Z,96821.63
2023-12-01T12:27:02.534Z,96820.44
2023-12-01T12:29:29.702Z,96863.84
2023-12-01T12:31:57.604Z,96791.78
2023-12-01T12:34:25.672Z,96853.38
2023-12-01T12:36:54.390Z,96791.78
2023-12-01T12:39:24.837Z,96814.69
2023-12-01T12:42:01.163Z,96865.09
2023-12-01T12:44:31.250Z,96865.28
2023-12-01T12:47:03.752Z,96790.47
2023-12-01T12:49:35.093Z,96813.84
2023-12-01T12:52:03.427Z,96837.25
2023-12-01T12:54:30.382Z,96824.31
2023-12-01T12:56:57.195Z,96815.50
2023-12-01T12:59:24.628Z,96880.91
2023-12-01T13:01:52.176Z,96801.56
2023-12-01T13:04:20.642Z,96799.28
2023-12-01T13:06:49.510Z,96848.28
2023-12-01T13:09:18.968Z,96800.84
2023-12-01T13:11:46.250Z,96806.63
2023-12-01T13:14:14.746Z,96848.28
2023-12-01T13:16:52.470Z,96841.94
2023-12-01T13:19:23.710Z,96829.03
2023-12-01T13:21:54.321Z,96825.16
2023-12-01T13:24:23.129Z,96797.63
2023-12-01T13:26:49.904Z,96735.78
2023-12-01T13:29:16.585Z,96814.16
2023-12-01T13:31:43.459Z,96809.41
2023-12-01T13:34:10.316Z,96820.88
2023-12-01T13:36:36.974Z,96805.16
2023-12-01T13:39:03.706Z,96776.47
2023-12-01T13:41:30.541Z,96811.50
2023-12-01T13:43:57.268Z,96766.50
2023-12-01T13:46:24.071Z,96765.03
2023-12-01T13:48:50.803Z,96750.66
2023-12-01T13:51:17.527Z,96777.66
2023-12-01T13:53:44.231Z,96748.47
2023-12-01T13:56:11.893Z,96718.09
2023-12-01T13:58:43.857Z,96760.66
2023-12-01T14:01:12.737Z,96729.25
2023-12-01T14:03:40.147Z,96744.59
2023-12-01T14:06:07.724Z,96738.91
2023-12-01T14:08:34.731Z,96755.31
2023-12-01T14:11:01.774Z,96716.03
2023-12-01T14:13:28.388Z,96694.97
2023-12-01T14:15:55.055Z,96749.63
2023-12-01T14:18:22.771Z,96755.34
2023-12-01T14:20:49.954Z,96733.44
2023-12-01T14:23:16.812Z,96720.84
2023-12-01T14:25:43.583Z,96736.09
2023-12-01T14:28:10.342Z,96768.06
2023-12-01T14:30:37.040Z,96734.44
2023-12-01T14:33:03.899Z,96746.53
2023-12-01T14:35:30.773Z,96723.63
2023-12-01T14:37:57.378Z,96665.69
2023-12-01T14:40:24.278Z,96709.94
2023-12-01T14:42:51.089Z,96729.66
2023-12-01T14:45:18.152Z,96721.66
2023-12-01T14:47:45.063Z,96690.81
2023-12-01T14:50:11.736Z,96727.59
2023-12-01T14:52:38.276Z,96723.28
2023-12-01T14:55:05.553Z,96700.34
2023-12-01T14:57:32.567Z,96709.44
2023-12-01T14:59:59.217Z,96716.00
2023-12-01T15:02:25.987Z,96660.38
2023-12-01T15:04:52.612Z,96657.66
2023-12-01T15:07:19.278Z,96697.31
2023-12-01T15:09:45.886Z,96661.41
2023-12-01T15:12:12.583Z,96670.56
2023-12-01T15:14:39.215Z,96659.13
2023-12-01T15:17:06.037Z,96702.88
2023-12-01T15:19:33.717Z,96717.00
2023-12-01T15:22:01.314Z,96719.81
2023-12-01T15:24:28.177Z,96633.97
2023-12-01T15:26:58.065Z,96684.31
2023-12-01T15:29:25.411Z,96677.53
2023-12-01T15:31:52.517Z,96673.34
2023-12-01T15:34:19.342Z,96625.13
2023-12-01T15:36:46.332Z,96662.81
2023-12-01T15:39:13.059Z,96665.78
2023-12-01T15:41:40.196Z,96608.25
2023-12-01T15:44:08.214Z,96683.78
2023-12-01T15:46:34.905Z,96714.97
2023-12-01T15:49:01.553Z,96716.81
2023-12-01T15:51:28.202Z,96677.31
2023-12-01T15:53:54.917Z,96640.09
2023-12-01T15:56:22.083Z,96631.50
2023-12-01T15:58:48.696Z,96693.53
2023-12-01T16:01:15.314Z,96674.25
2023-12-01T16:03:42.136Z,96595.03
2023-12-01T16:06:09.822Z,96617.44
2023-12-01T16:08:37.458Z,96640.81
2023-12-01T16:11:04.539Z,96636.19
2023-12-01T16:13:31.371Z,96623.47
2023-12-01T16:15:58.124Z,96673.00
2023-12-01T16:18:25.483Z,96697.19
2023-12-01T16:20:53.050Z,96670.56
2023-12-01T16:23:20.940Z,96659.88
2023-12-01T16:25:50.273Z,96654.66
2023-12-01T16:28:17.653Z,96640.38
2023-12-01T16:30:44.411Z,96647.69
2023-12-01T16:33:11.139Z,96698.72
2023-12-01T16:35:37.807Z,96623.75
2023-12-01T16:38:06.278Z,96676.47
2023-12-01T16:40:33.219Z,96660.56
2023-12-01T16:42:59.834Z,96639.88
2023-12-01T16:45:26.567Z,96662.44
2023-12-01T16:47:53.704Z,96625.72
2023-12-01T16:50:20.513Z,96645.09
2023-12-01T16:52:47.198Z,96670.28
2023-12-01T16:55:16.214Z,96597.75
2023-12-01T16:57:43.153Z,96647.50
2023-12-01T17:00:10.626Z,96641.91
2023-12-01T17:02:39.115Z,96645.13
2023-12-01T17:05:06.273Z,96692.09
2023-12-01T17:07:33.044Z,96650.13
2023-12-01T17:09:59.792Z,96643.00
2023-12-01T17:12:26.645Z,96606.53
2023-12-01T17:14:53.318Z,96667.63
2023-12-01T17:17:19.990Z,96642.81
2023-12-01T17:19:46.845Z,96607.69
2023-12-01T17:22:14.275Z,96684.44
2023-12-01T17:24:46.365Z,96686.69
2023-12-01T17:27:13.584Z,96678.94
2023-12-01T17:29:41.706Z,96645.13
2023-12-01T17:32:09.374Z,96650.34
2023-12-01T17:34:36.741Z,96670.63
2023-12-01T17:37:03.998Z,96657.66
2023-12-01T17:39:31.239Z,96657.47
2023-12-01T17:41:57.898Z,96718.41
2023-12-01T17:44:24.556Z,96663.09
2023-12-01T17:46:51.267Z,96649.53
2023-12-01T17:49:18.058Z,96677.63
2023-12-01T17:51:44.714Z,96640.41
2023-12-01T17:54:12.964Z,96701.44
2023-12-01T17:56:39.638Z,96639.41
2023-12-01T17:59:06.898Z,96686.56
2023-12-01T18:01:38.000Z,96670.63
2023-12-01T18:04:05.439Z,96720.13
2023-12-01T18:06:33.290Z,96656.38
2023-12-01T18:09:01.545Z,96702.06
2023-12-01T18:11:28.371Z,96681.38
2023-12-01T18:13:55.425Z,96599.59
2023-12-01T18:16:22.627Z,96617.88
2023-12-01T18:18:49.589Z,96669.28
2023-12-01T18:21:16.251Z,96617.97
2023-12-01T18:23:42.886Z,96656.59
2023-12-01T18:26:09.522Z,96595.13
2023-12-01T18:28:36.248Z,96602.75
2023-12-01T18:31:02.818Z,96623.56
2023-12-01T18:33:30.367Z,96609.03
2023-12-01T18:35:57.100Z,96618.75
2023-12-01T18:38:23.708Z,96659.06
2023-12-01T18:40:50.392Z,96642.34
2023-12-01T18:43:20.895Z,96644.66
2023-12-01T18:45:47.780Z,96619.81
2023-12-01T18:48:14.520Z,96604.13
2023-12-01T18:50:41.274Z,96635.44
2023-12-01T18:53:07.977Z,96596.16
2023-12-01T18:55:34.623Z,96585.09
2023-12-01T18:58:01.412Z,96602.50
2023-12-01T19:00:28.234Z,96620.31
2023-12-01T19:02:55.426Z,96571.41
2023-12-01T19:05:23.574Z,96634.69
2023-12-01T19:07:50.746Z,96568.25
2023-12-01T19:10:17.424Z,96588.13
2023-12-01T19:12:44.070Z,96605.53
2023-12-01T19:15:11.009Z,96604.78
2023-12-01T19:17:37.909Z,96642.53
2023-12-01T19:20:05.688Z,96583.53
2023-12-01T19:22:32.700Z,96620.31
2023-12-01T19:24:59.985Z,96589.53
2023-12-01T19:27:27.772Z,96585.16
2023-12-01T19:29:54.515Z,96635.63
2023-12-01T19:32:21.395Z,96608.19
2023-12-01T19:34:48.109Z,96593.34
2023-12-01T19:37:17.120Z,96597.72
2023-12-01T19:39:43.779Z,96613.31
2023-12-01T19:42:12.065Z,96592.88
2023-12-01T19:44:38.935Z,96566.81
2023-12-01T19:47:05.913Z,96557.06
2023-12-01T19:49:33.173Z,96587.88
2023-12-01T19:51:59.827Z,96566.94
2023-12-01T19:54:26.505Z,96588.50
2023-12-01T19:56:53.235Z,96622.53
2023-12-01T19:59:20.322Z,96593.88
2023-12-01T20:01:48.601Z,96593.16
2023-12-01T20:04:15.441Z,96573.09
2023-12-01T20:06:42.411Z,96550.38
2023-12-01T20:09:09.346Z,96561.88
2023-12-01T20:11:36.043Z,96543.50
2023-12-01T20:14:02.801Z,96547.63
2023-12-01T20:16:29.614Z,96584.94
2023-12-01T20:18:57.176Z,96596.84
2023-12-01T20:21:24.045Z,96557.41
2023-12-01T20:23:50.757Z,96582.31
2023-12-01T20:26:17.494Z,96553.38
2023-12-01T20:28:44.121Z,96579.91
2023-12-01T20:31:12.487Z,96592.84
2023-12-01T20:33:39.223Z,96560.47
2023-12-01T20:36:06.153Z,96559.13
2023-12-01T20:38:34.406Z,96547.91
2023-12-01T20:41:04.645Z,96579.66
2023-12-01T20:43:31.309Z,96588.06
2023-12-01T20:45:58.625Z,96551.75
2023-12-01T20:48:25.453Z,96595.19
2023-12-01T20:50:52.162Z,96579.25
2023-12-01T20:53:18.830Z,96524.97
2023-12-01T20:55:46.283Z,96548.28
2023-12-01T20:58:13.021Z,96588.56
2023-12-01T21:00:39.869Z,96553.03
2023-12-01T21:03:06.533Z,96571.75
2023-12-01T21:05:33.517Z,96557.91
2023-12-01T21:08:00.100Z,96537.50
2023-12-01T21:10:26.824Z,96511.72
2023-12-01T21:12:53.503Z,96524.38
2023-12-01T21:15:20.089Z,96525.59
2023-12-01T21:17:46.804Z,96554.91
2023-12-01T21:20:13.456Z,96508.41
2023-12-01T21:22:40.126Z,96550.06
2023-12-01T21:25:07.264Z,96501.75
2023-12-01T21:27:34.191Z,96478.41
2023-12-01T21:30:00.936Z,96519.44
2023-12-01T21:32:29.356Z,96470.47
2023-12-01T21:34:56.161Z,96498.34
2023-12-01T21:37:22.808Z,96485.41
2023-12-01T21:39:49.396Z,96488.28
2023-12-01T21:42:16.132Z,96529.94
2023-12-01T21:44:42.964Z,96451.56
2023-12-01T21:47:09.603Z,96516.59
2023-12-01T21:49:36.304Z,96516.16
2023-12-01T21:52:03.298Z,96488.50
2023-12-01T21:54:30.007Z,96564.19
2023-12-01T21:56:56.668Z,96521.25
2023-12-01T21:59:23.402Z,96529.06
2023-12-01T22:01:50.032Z,96503.69
2023-12-01T22:04:16.676Z,96514.31
2023-12-01T22:06:43.350Z,96489.16
2023-12-01T22:09:09.945Z,96500.84
2023-12-01T22:11:41.067Z,96490.25
2023-12-01T22:14:07.727Z,96490.66
2023-12-01T22:16:34.346Z,96476.94
2023-12-01T22:19:00.981Z,96529.41
2023-12-01T22:21:27.642Z,96468.41
2023-12-01T22:23:54.300Z,96495.00
2023-12-01T22:26:20.875Z,96489.09
2023-12-01T22:28:47.523Z,96509.13
2023-12-01T22:31:14.346Z,96513.56
2023-12-01T22:33:40.930Z,96461.75
2023-12-01T22:36:07.855Z,96447.88
2023-12-01T22:38:34.451Z,96466.25
2023-12-01T22:41:01.066Z,96453.66
2023-12-01T22:43:27.602Z,96443.06
2023-12-01T22:45:54.442Z,96514.03
2023-12-01T22:48:21.238Z,96510.91
2023-12-01T22:50:47.887Z,96507.00
2023-12-01T22:53:14.523Z,96535.78
2023-12-01T22:55:41.257Z,96549.75
2023-12-01T22:58:08.111Z,96517.91
2023-12-01T23:00:34.798Z,96498.97
2023-12-01T23:03:01.821Z,96458.06
2023-12-01T23:05:28.816Z,96452.09
2023-12-01T23:07:57.242Z,96481.19
2023-12-01T23:10:24.024Z,96435.56
2023-12-01T23:12:50.675Z,96455.22
2023-12-01T23:15:17.594Z,96414.72
2023-12-01T23:17:57.072Z,96447.44
2023-12-01T23:20:26.258Z,96408.59
2023-12-01T23:22:53.161Z,96394.31
2023-12-01T23:25:19.737Z,96441.44
2023-12-01T23:27:46.357Z,96391.22
2023-12-01T23:30:13.502Z,96449.75
2023-12-01T23:32:40.171Z,96417.56
2023-12-01T23:35:07.657Z,96401.81
2023-12-01T23:37:34.275Z,96382.84
2023-12-01T23:40:00.913Z,96411.09
2023-12-01T23:42:27.567Z,96384.06
2023-12-01T23:44:54.154Z,96391.47
2023-12-01T23:47:20.820Z,96408.22
2023-12-01T23:49:47.850Z,96381.44
2023-12-01T23:52:14.797Z,96392.94
2023-12-01T23:54:41.358Z,96364.53
2023-12-01T23:57:08.085Z,96387.84
2023-12-01T23:59:34.758Z,96370.06
